sensor_id;sensor_type;location;lat;lon;timestamp;temperature;humidity
46037;DHT22;31769;49.304;8.428;2023-11-22T00:00:41;8.00;99.90
46037;DHT22;31769;49.304;8.428;2023-11-22T00:03:41;8.00;99.90
46037;DHT22;31769;49.304;8.428;2023-11-22T00:06:42;7.90;99.90
46037;DHT22;31769;49.304;8.428;2023-11-22T00:09:43;7.80;99.90
46037;DHT22;31769;49.304;8.428;2023-11-22T00:12:43;7.80;99.90
46037;DHT22;31769;49.304;8.428;2023-11-22T00:15:44;7.70;99.90
46037;DHT22;31769;49.304;8.428;2023-11-22T00:18:45;7.60;99.90
46037;DHT22;31769;49.304;8.428;2023-11-22T00:21:46;7.50;99.90
46037;DHT22;31769;49.304;8.428;2023-11-22T00:24:46;7.40;99.90
46037;DHT22;31769;49.304;8.428;2023-11-22T00:27:50;7.30;99.90
46037;DHT22;31769;49.304;8.428;2023-11-22T00:30:51;7.20;99.90
46037;DHT22;31769;49.304;8.428;2023-11-22T00:33:52;7.10;99.90
46037;DHT22;31769;49.304;8.428;2023-11-22T00:36:52;7.10;99.90
46037;DHT22;31769;49.304;8.428;2023-11-22T00:39:53;7.00;99.90
46037;DHT22;31769;49.304;8.428;2023-11-22T00:42:54;6.90;99.90
46037;DHT22;31769;49.304;8.428;2023-11-22T00:45:55;6.90;99.90
46037;DHT22;31769;49.304;8.428;2023-11-22T00:48:57;6.90;99.90
46037;DHT22;31769;49.304;8.428;2023-11-22T00:51:58;6.80;99.90
46037;DHT22;31769;49.304;8.428;2023-11-22T00:54:59;6.80;99.90
46037;DHT22;31769;49.304;8.428;2023-11-22T00:58:00;6.80;99.90
46037;DHT22;31769;49.304;8.428;2023-11-22T01:01:04;6.70;99.90
46037;DHT22;31769;49.304;8.428;2023-11-22T01:04:05;6.70;99.90
46037;DHT22;31769;49.304;8.428;2023-11-22T01:07:08;6.70;99.90
46037;DHT22;31769;49.304;8.428;2023-11-22T01:10:10;6.70;99.90
46037;DHT22;31769;49.304;8.428;2023-11-22T01:13:11;6.70;99.90
46037;DHT22;31769;49.304;8.428;2023-11-22T01:16:11;6.60;99.90
46037;DHT22;31769;49.304;8.428;2023-11-22T01:19:13;6.60;99.90
46037;DHT22;31769;49.304;8.428;2023-11-22T01:22:14;6.60;99.90
46037;DHT22;31769;49.304;8.428;2023-11-22T01:25:15;6.60;99.90
46037;DHT22;31769;49.304;8.428;2023-11-22T01:28:16;6.70;99.90
46037;DHT22;31769;49.304;8.428;2023-11-22T01:31:17;6.70;99.90
46037;DHT22;31769;49.304;8.428;2023-11-22T01:34:21;6.70;99.90
46037;DHT22;31769;49.304;8.428;2023-11-22T01:37:22;6.60;99.90
46037;DHT22;31769;49.304;8.428;2023-11-22T01:40:22;6.60;99.90
46037;DHT22;31769;49.304;8.428;2023-11-22T01:43:26;6.60;99.90
46037;DHT22;31769;49.304;8.428;2023-11-22T01:46:27;6.60;99.90
46037;DHT22;31769;49.304;8.428;2023-11-22T01:49:28;6.50;99.90
46037;DHT22;31769;49.304;8.428;2023-11-22T01:52:30;6.40;99.90
46037;DHT22;31769;49.304;8.428;2023-11-22T01:55:30;6.30;99.90
46037;DHT22;31769;49.304;8.428;2023-11-22T01:58:31;6.30;99.90
46037;DHT22;31769;49.304;8.428;2023-11-22T02:01:32;6.20;99.90
46037;DHT22;31769;49.304;8.428;2023-11-22T02:04:33;6.20;99.90
46037;DHT22;31769;49.304;8.428;2023-11-22T02:07:34;6.10;99.90
46037;DHT22;31769;49.304;8.428;2023-11-22T02:10:35;6.10;99.90
46037;DHT22;31769;49.304;8.428;2023-11-22T02:13:37;6.10;99.90
46037;DHT22;31769;49.304;8.428;2023-11-22T02:16:38;6.00;99.90
46037;DHT22;31769;49.304;8.428;2023-11-22T02:19:40;6.00;99.90
46037;DHT22;31769;49.304;8.428;2023-11-22T02:22:45;5.90;99.90
46037;DHT22;31769;49.304;8.428;2023-11-22T02:25:47;5.90;99.90
46037;DHT22;31769;49.304;8.428;2023-11-22T02:28:48;5.90;99.90
46037;DHT22;31769;49.304;8.428;2023-11-22T02:31:49;5.90;99.90
46037;DHT22;31769;49.304;8.428;2023-11-22T02:34:49;5.80;99.90
46037;DHT22;31769;49.304;8.428;2023-11-22T02:37:51;5.80;99.90
46037;DHT22;31769;49.304;8.428;2023-11-22T02:40:52;5.70;99.90
46037;DHT22;31769;49.304;8.428;2023-11-22T02:43:53;5.70;99.90
46037;DHT22;31769;49.304;8.428;2023-11-22T02:46:53;5.60;99.90
46037;DHT22;31769;49.304;8.428;2023-11-22T02:49:54;5.60;99.90
46037;DHT22;31769;49.304;8.428;2023-11-22T02:52:55;5.60;99.90
46037;DHT22;31769;49.304;8.428;2023-11-22T02:55:59;5.50;99.90
46037;DHT22;31769;49.304;8.428;2023-11-22T02:59:00;5.50;99.90
46037;DHT22;31769;49.304;8.428;2023-11-22T03:02:01;5.50;99.90
46037;DHT22;31769;49.304;8.428;2023-11-22T03:05:02;5.40;99.90
46037;DHT22;31769;49.304;8.428;2023-11-22T03:08:04;5.40;99.90
46037;DHT22;31769;49.304;8.428;2023-11-22T03:11:07;5.40;99.90
46037;DHT22;31769;49.304;8.428;2023-11-22T03:14:08;5.30;99.90
46037;DHT22;31769;49.304;8.428;2023-11-22T03:17:09;5.30;99.90
46037;DHT22;31769;49.304;8.428;2023-11-22T03:20:10;5.30;99.90
46037;DHT22;31769;49.304;8.428;2023-11-22T03:23:11;5.20;99.90
46037;DHT22;31769;49.304;8.428;2023-11-22T03:26:12;5.20;99.90
46037;DHT22;31769;49.304;8.428;2023-11-22T03:29:15;5.10;99.90
46037;DHT22;31769;49.304;8.428;2023-11-22T03:32:18;5.10;99.90
46037;DHT22;31769;49.304;8.428;2023-11-22T03:35:19;5.10;99.90
46037;DHT22;31769;49.304;8.428;2023-11-22T03:38:20;5.10;99.90
46037;DHT22;31769;49.304;8.428;2023-11-22T03:41:21;5.00;99.90
46037;DHT22;31769;49.304;8.428;2023-11-22T03:44:22;5.00;99.90
46037;DHT22;31769;49.304;8.428;2023-11-22T03:47:23;5.00;99.90
46037;DHT22;31769;49.304;8.428;2023-11-22T03:50:24;5.00;99.90
46037;DHT22;31769;49.304;8.428;2023-11-22T03:53:24;4.90;99.90
46037;DHT22;31769;49.304;8.428;2023-11-22T03:56:26;4.80;99.90
46037;DHT22;31769;49.304;8.428;2023-11-22T03:59:27;4.80;99.90
46037;DHT22;31769;49.304;8.428;2023-11-22T04:02:28;4.80;99.90
46037;DHT22;31769;49.304;8.428;2023-11-22T04:05:29;4.80;99.90
46037;DHT22;31769;49.304;8.428;2023-11-22T04:08:30;4.80;99.90
46037;DHT22;31769;49.304;8.428;2023-11-22T04:11:31;4.70;99.90
46037;DHT22;31769;49.304;8.428;2023-11-22T04:14:31;4.70;99.90
46037;DHT22;31769;49.304;8.428;2023-11-22T04:17:32;4.70;99.90
46037;DHT22;31769;49.304;8.428;2023-11-22T04:20:33;4.70;99.90
46037;DHT22;31769;49.304;8.428;2023-11-22T04:23:34;4.60;99.90
46037;DHT22;31769;49.304;8.428;2023-11-22T04:26:34;4.60;99.90
46037;DHT22;31769;49.304;8.428;2023-11-22T04:29:35;4.60;99.90
46037;DHT22;31769;49.304;8.428;2023-11-22T04:32:36;4.60;99.90
46037;DHT22;31769;49.304;8.428;2023-11-22T04:35:36;4.60;99.90
46037;DHT22;31769;49.304;8.428;2023-11-22T04:38:39;4.50;99.90
46037;DHT22;31769;49.304;8.428;2023-11-22T04:41:39;4.40;99.90
46037;DHT22;31769;49.304;8.428;2023-11-22T04:44:40;4.40;99.90
46037;DHT22;31769;49.304;8.428;2023-11-22T04:47:41;4.40;99.90
46037;DHT22;31769;49.304;8.428;2023-11-22T04:50:42;4.40;99.90
46037;DHT22;31769;49.304;8.428;2023-11-22T04:53:43;4.30;99.90
46037;DHT22;31769;49.304;8.428;2023-11-22T04:56:44;4.30;99.90
46037;DHT22;31769;49.304;8.428;2023-11-22T04:59:45;4.20;99.90
46037;DHT22;31769;49.304;8.428;2023-11-22T05:02:46;4.30;99.90
46037;DHT22;31769;49.304;8.428;2023-11-22T05:05:47;4.30;99.90
46037;DHT22;31769;49.304;8.428;2023-11-22T05:08:48;4.30;99.90
46037;DHT22;31769;49.304;8.428;2023-11-22T05:11:49;4.20;99.90
46037;DHT22;31769;49.304;8.428;2023-11-22T05:14:49;4.20;99.90
46037;DHT22;31769;49.304;8.428;2023-11-22T05:17:50;4.20;99.90
46037;DHT22;31769;49.304;8.428;2023-11-22T05:20:51;4.10;99.90
46037;DHT22;31769;49.304;8.428;2023-11-22T05:23:52;4.10;99.90
46037;DHT22;31769;49.304;8.428;2023-11-22T05:26:54;4.20;99.90
46037;DHT22;31769;49.304;8.428;2023-11-22T05:29:55;4.10;99.90
46037;DHT22;31769;49.304;8.428;2023-11-22T05:32:57;4.00;99.90
46037;DHT22;31769;49.304;8.428;2023-11-22T05:35:58;4.00;99.90
46037;DHT22;31769;49.304;8.428;2023-11-22T05:38:58;4.10;99.90
46037;DHT22;31769;49.304;8.428;2023-11-22T05:41:59;4.90;99.90
46037;DHT22;31769;49.304;8.428;2023-11-22T05:45:01;4.10;99.90
46037;DHT22;31769;49.304;8.428;2023-11-22T05:48:02;4.00;99.90
46037;DHT22;31769;49.304;8.428;2023-11-22T05:51:03;4.00;99.90
46037;DHT22;31769;49.304;8.428;2023-11-22T05:54:04;4.00;99.90
46037;DHT22;31769;49.304;8.428;2023-11-22T05:57:05;3.90;99.90
46037;DHT22;31769;49.304;8.428;2023-11-22T06:00:07;3.90;99.90
46037;DHT22;31769;49.304;8.428;2023-11-22T06:03:07;3.80;99.90
46037;DHT22;31769;49.304;8.428;2023-11-22T06:06:09;3.90;99.90
46037;DHT22;31769;49.304;8.428;2023-11-22T06:09:10;3.90;99.90
46037;DHT22;31769;49.304;8.428;2023-11-22T06:12:14;3.80;99.90
46037;DHT22;31769;49.304;8.428;2023-11-22T06:15:15;3.80;99.90
46037;DHT22;31769;49.304;8.428;2023-11-22T06:18:16;3.80;99.90
46037;DHT22;31769;49.304;8.428;2023-11-22T06:21:16;3.80;99.90
46037;DHT22;31769;49.304;8.428;2023-11-22T06:24:17;3.70;99.90
46037;DHT22;31769;49.304;8.428;2023-11-22T06:27:18;3.80;99.90
46037;DHT22;31769;49.304;8.428;2023-11-22T06:30:19;3.70;99.90
46037;DHT22;31769;49.304;8.428;2023-11-22T06:33:19;3.70;99.90
46037;DHT22;31769;49.304;8.428;2023-11-22T06:36:20;3.70;99.90
46037;DHT22;31769;49.304;8.428;2023-11-22T06:39:21;3.70;99.90
46037;DHT22;31769;49.304;8.428;2023-11-22T06:42:23;3.70;99.90
46037;DHT22;31769;49.304;8.428;2023-11-22T06:45:23;3.70;99.90
46037;DHT22;31769;49.304;8.428;2023-11-22T06:48:24;3.70;99.90
46037;DHT22;31769;49.304;8.428;2023-11-22T06:51:25;3.70;99.90
46037;DHT22;31769;49.304;8.428;2023-11-22T06:54:27;3.70;99.90
46037;DHT22;31769;49.304;8.428;2023-11-22T06:57:27;3.70;99.90
46037;DHT22;31769;49.304;8.428;2023-11-22T07:00:29;3.70;99.90
46037;DHT22;31769;49.304;8.428;2023-11-22T07:03:31;3.70;99.90
46037;DHT22;31769;49.304;8.428;2023-11-22T07:06:32;3.70;99.90
46037;DHT22;31769;49.304;8.428;2023-11-22T07:09:32;3.70;99.90
46037;DHT22;31769;49.304;8.428;2023-11-22T07:12:33;3.80;99.90
46037;DHT22;31769;49.304;8.428;2023-11-22T07:15:37;3.80;99.90
46037;DHT22;31769;49.304;8.428;2023-11-22T07:18:38;3.70;99.90
46037;DHT22;31769;49.304;8.428;2023-11-22T07:21:38;3.80;99.90
46037;DHT22;31769;49.304;8.428;2023-11-22T07:24:40;3.70;99.90
46037;DHT22;31769;49.304;8.428;2023-11-22T07:27:47;3.70;99.90
46037;DHT22;31769;49.304;8.428;2023-11-22T07:30:48;3.80;99.90
46037;DHT22;31769;49.304;8.428;2023-11-22T07:33:52;3.70;99.90
46037;DHT22;31769;49.304;8.428;2023-11-22T07:36:53;3.80;99.90
46037;DHT22;31769;49.304;8.428;2023-11-22T07:39:54;3.80;99.90
46037;DHT22;31769;49.304;8.428;2023-11-22T07:42:54;3.80;99.90
46037;DHT22;31769;49.304;8.428;2023-11-22T07:45:55;3.90;99.90
46037;DHT22;31769;49.304;8.428;2023-11-22T07:48:56;3.90;99.90
46037;DHT22;31769;49.304;8.428;2023-11-22T07:51:56;3.90;99.90
46037;DHT22;31769;49.304;8.428;2023-11-22T07:54:57;4.00;99.90
46037;DHT22;31769;49.304;8.428;2023-11-22T07:57:58;4.00;99.90
46037;DHT22;31769;49.304;8.428;2023-11-22T08:00:59;4.00;99.90
46037;DHT22;31769;49.304;8.428;2023-11-22T08:04:00;4.00;99.90
46037;DHT22;31769;49.304;8.428;2023-11-22T08:07:01;3.90;99.90
46037;DHT22;31769;49.304;8.428;2023-11-22T08:10:02;3.90;99.90
46037;DHT22;31769;49.304;8.428;2023-11-22T08:13:09;3.90;99.90
46037;DHT22;31769;49.304;8.428;2023-11-22T08:16:11;4.00;99.90
46037;DHT22;31769;49.304;8.428;2023-11-22T08:19:13;4.00;99.90
46037;DHT22;31769;49.304;8.428;2023-11-22T08:22:14;4.00;99.90
46037;DHT22;31769;49.304;8.428;2023-11-22T08:25:15;4.10;99.90
46037;DHT22;31769;49.304;8.428;2023-11-22T08:28:16;4.20;99.90
46037;DHT22;31769;49.304;8.428;2023-11-22T08:31:17;4.20;99.90
46037;DHT22;31769;49.304;8.428;2023-11-22T08:34:18;4.30;99.90
46037;DHT22;31769;49.304;8.428;2023-11-22T08:37:18;4.40;99.90
46037;DHT22;31769;49.304;8.428;2023-11-22T08:40:19;4.50;99.90
46037;DHT22;31769;49.304;8.428;2023-11-22T08:43:21;4.60;99.90
46037;DHT22;31769;49.304;8.428;2023-11-22T08:46:23;4.60;99.90
46037;DHT22;31769;49.304;8.428;2023-11-22T08:49:24;4.70;99.90
46037;DHT22;31769;49.304;8.428;2023-11-22T08:52:25;4.60;99.90
46037;DHT22;31769;49.304;8.428;2023-11-22T08:55:26;4.60;99.90
46037;DHT22;31769;49.304;8.428;2023-11-22T08:58:27;4.60;99.90
46037;DHT22;31769;49.304;8.428;2023-11-22T09:01:28;4.60;99.90
46037;DHT22;31769;49.304;8.428;2023-11-22T09:04:29;4.60;99.90
46037;DHT22;31769;49.304;8.428;2023-11-22T09:07:32;4.70;99.90
46037;DHT22;31769;49.304;8.428;2023-11-22T09:10:34;4.90;99.90
46037;DHT22;31769;49.304;8.428;2023-11-22T09:13:35;5.10;99.90
46037;DHT22;31769;49.304;8.428;2023-11-22T09:16:37;5.40;99.90
46037;DHT22;31769;49.304;8.428;2023-11-22T09:19:39;5.50;99.90
46037;DHT22;31769;49.304;8.428;2023-11-22T09:22:43;5.60;99.90
46037;DHT22;31769;49.304;8.428;2023-11-22T09:25:49;5.60;99.90
46037;DHT22;31769;49.304;8.428;2023-11-22T09:28:50;5.70;99.90
46037;DHT22;31769;49.304;8.428;2023-11-22T09:31:50;5.80;99.90
46037;DHT22;31769;49.304;8.428;2023-11-22T09:34:52;6.00;99.90
46037;DHT22;31769;49.304;8.428;2023-11-22T09:38:05;6.20;99.90
46037;DHT22;31769;49.304;8.428;2023-11-22T09:41:12;6.20;99.90
46037;DHT22;31769;49.304;8.428;2023-11-22T09:44:14;6.30;99.90
46037;DHT22;31769;49.304;8.428;2023-11-22T09:47:17;6.30;99.90
46037;DHT22;31769;49.304;8.428;2023-11-22T09:50:29;6.40;99.90
46037;DHT22;31769;49.304;8.428;2023-11-22T09:53:40;6.40;99.90
46037;DHT22;31769;49.304;8.428;2023-11-22T09:56:41;6.30;99.90
46037;DHT22;31769;49.304;8.428;2023-11-22T09:59:42;6.50;99.90
46037;DHT22;31769;49.304;8.428;2023-11-22T10:02:43;6.30;99.90
46037;DHT22;31769;49.304;8.428;2023-11-22T10:05:44;6.40;99.90
46037;DHT22;31769;49.304;8.428;2023-11-22T10:08:45;6.70;99.90
46037;DHT22;31769;49.304;8.428;2023-11-22T10:11:48;6.60;99.90
46037;DHT22;31769;49.304;8.428;2023-11-22T10:14:50;6.70;99.90
46037;DHT22;31769;49.304;8.428;2023-11-22T10:17:56;7.10;99.90
46037;DHT22;31769;49.304;8.428;2023-11-22T10:20:57;7.30;99.90
46037;DHT22;31769;49.304;8.428;2023-11-22T10:24:04;7.20;99.90
46037;DHT22;31769;49.304;8.428;2023-11-22T10:27:05;7.10;99.90
46037;DHT22;31769;49.304;8.428;2023-11-22T10:30:08;6.70;99.90
46037;DHT22;31769;49.304;8.428;2023-11-22T10:33:10;6.80;99.90
46037;DHT22;31769;49.304;8.428;2023-11-22T10:36:14;6.70;99.90
46037;DHT22;31769;49.304;8.428;2023-11-22T10:39:19;6.60;99.90
46037;DHT22;31769;49.304;8.428;2023-11-22T10:42:21;6.50;99.90
46037;DHT22;31769;49.304;8.428;2023-11-22T10:45:27;6.30;99.90
46037;DHT22;31769;49.304;8.428;2023-11-22T10:48:29;6.00;99.90
46037;DHT22;31769;49.304;8.428;2023-11-22T10:51:32;6.00;99.90
46037;DHT22;31769;49.304;8.428;2023-11-22T10:54:35;6.20;99.90
46037;DHT22;31769;49.304;8.428;2023-11-22T10:57:45;6.30;99.90
46037;DHT22;31769;49.304;8.428;2023-11-22T11:00:48;6.30;99.90
46037;DHT22;31769;49.304;8.428;2023-11-22T11:04:07;6.20;99.90
46037;DHT22;31769;49.304;8.428;2023-11-22T11:07:12;6.10;99.90
46037;DHT22;31769;49.304;8.428;2023-11-22T11:10:18;6.00;99.90
46037;DHT22;31769;49.304;8.428;2023-11-22T11:13:19;6.10;99.90
46037;DHT22;31769;49.304;8.428;2023-11-22T11:16:21;6.20;99.90
46037;DHT22;31769;49.304;8.428;2023-11-22T11:19:22;6.10;99.90
46037;DHT22;31769;49.304;8.428;2023-11-22T11:22:24;6.20;99.90
46037;DHT22;31769;49.304;8.428;2023-11-22T11:25:25;6.30;99.90
46037;DHT22;31769;49.304;8.428;2023-11-22T11:28:26;6.20;99.90
46037;DHT22;31769;49.304;8.428;2023-11-22T11:31:32;6.30;99.90
46037;DHT22;31769;49.304;8.428;2023-11-22T11:34:49;6.30;99.90
46037;DHT22;31769;49.304;8.428;2023-11-22T11:37:59;6.50;99.90
46037;DHT22;31769;49.304;8.428;2023-11-22T11:41:11;6.80;99.90
46037;DHT22;31769;49.304;8.428;2023-11-22T11:44:12;6.90;99.90
46037;DHT22;31769;49.304;8.428;2023-11-22T11:47:13;7.00;99.90
46037;DHT22;31769;49.304;8.428;2023-11-22T11:50:14;7.20;99.90
46037;DHT22;31769;49.304;8.428;2023-11-22T11:53:18;7.20;99.90
46037;DHT22;31769;49.304;8.428;2023-11-22T11:56:19;7.20;99.90
46037;DHT22;31769;49.304;8.428;2023-11-22T11:59:20;7.40;99.90
46037;DHT22;31769;49.304;8.428;2023-11-22T12:02:21;7.70;99.90
46037;DHT22;31769;49.304;8.428;2023-11-22T12:05:22;7.90;99.90
46037;DHT22;31769;49.304;8.428;2023-11-22T12:08:23;8.00;99.90
46037;DHT22;31769;49.304;8.428;2023-11-22T12:11:23;7.80;99.90
46037;DHT22;31769;49.304;8.428;2023-11-22T12:14:24;7.60;99.90
46037;DHT22;31769;49.304;8.428;2023-11-22T12:17:26;7.50;99.90
46037;DHT22;31769;49.304;8.428;2023-11-22T12:20:28;7.60;99.90
46037;DHT22;31769;49.304;8.428;2023-11-22T12:23:31;7.80;99.90
46037;DHT22;31769;49.304;8.428;2023-11-22T12:26:32;8.00;99.90
46037;DHT22;31769;49.304;8.428;2023-11-22T12:29:36;9.00;99.90
46037;DHT22;31769;49.304;8.428;2023-11-22T12:32:40;10.60;99.90
46037;DHT22;31769;49.304;8.428;2023-11-22T12:35:42;11.30;99.00
46037;DHT22;31769;49.304;8.428;2023-11-22T12:38:44;10.80;97.60
46037;DHT22;31769;49.304;8.428;2023-11-22T12:41:47;9.90;99.50
46037;DHT22;31769;49.304;8.428;2023-11-22T12:44:51;9.10;99.90
46037;DHT22;31769;49.304;8.428;2023-11-22T12:47:56;8.80;99.90
46037;DHT22;31769;49.304;8.428;2023-11-22T12:51:00;9.20;99.90
46037;DHT22;31769;49.304;8.428;2023-11-22T12:54:01;9.50;99.90
46037;DHT22;31769;49.304;8.428;2023-11-22T12:57:02;9.70;99.90
46037;DHT22;31769;49.304;8.428;2023-11-22T13:00:03;10.20;99.90
46037;DHT22;31769;49.304;8.428;2023-11-22T13:03:10;10.60;98.90
46037;DHT22;31769;49.304;8.428;2023-11-22T13:06:11;11.10;97.50
46037;DHT22;31769;49.304;8.428;2023-11-22T13:09:12;11.40;97.00
46037;DHT22;31769;49.304;8.428;2023-11-22T13:12:15;11.70;98.40
46037;DHT22;31769;49.304;8.428;2023-11-22T13:15:16;12.60;99.30
46037;DHT22;31769;49.304;8.428;2023-11-22T13:18:17;12.10;97.20
46037;DHT22;31769;49.304;8.428;2023-11-22T13:21:18;11.10;97.30
46037;DHT22;31769;49.304;8.428;2023-11-22T13:24:18;10.30;97.70
46037;DHT22;31769;49.304;8.428;2023-11-22T13:27:21;9.60;98.50
46037;DHT22;31769;49.304;8.428;2023-11-22T13:30:22;9.20;99.50
46037;DHT22;31769;49.304;8.428;2023-11-22T13:33:25;9.10;99.90
46037;DHT22;31769;49.304;8.428;2023-11-22T13:36:26;9.00;99.90
46037;DHT22;31769;49.304;8.428;2023-11-22T13:39:28;8.60;99.90
46037;DHT22;31769;49.304;8.428;2023-11-22T13:42:33;8.60;99.90
46037;DHT22;31769;49.304;8.428;2023-11-22T13:45:35;8.80;99.90
46037;DHT22;31769;49.304;8.428;2023-11-22T13:48:36;8.60;99.90
46037;DHT22;31769;49.304;8.428;2023-11-22T13:51:37;8.50;99.90
46037;DHT22;31769;49.304;8.428;2023-11-22T13:54:38;10.10;99.60
46037;DHT22;31769;49.304;8.428;2023-11-22T13:57:39;12.80;95.10
46037;DHT22;31769;49.304;8.428;2023-11-22T14:00:40;13.60;94.20
46037;DHT22;31769;49.304;8.428;2023-11-22T14:03:41;12.80;93.30
46037;DHT22;31769;49.304;8.428;2023-11-22T14:06:42;11.60;93.50
46037;DHT22;31769;49.304;8.428;2023-11-22T14:09:42;10.20;95.80
46037;DHT22;31769;49.304;8.428;2023-11-22T14:12:47;9.10;97.40
46037;DHT22;31769;49.304;8.428;2023-11-22T14:15:50;8.50;99.70
46037;DHT22;31769;49.304;8.428;2023-11-22T14:18:51;8.10;99.90
46037;DHT22;31769;49.304;8.428;2023-11-22T14:21:52;7.60;99.90
46037;DHT22;31769;49.304;8.428;2023-11-22T14:24:52;7.50;99.90
46037;DHT22;31769;49.304;8.428;2023-11-22T14:27:53;7.10;99.90
46037;DHT22;31769;49.304;8.428;2023-11-22T14:30:56;7.00;99.90
46037;DHT22;31769;49.304;8.428;2023-11-22T14:33:56;6.90;99.90
46037;DHT22;31769;49.304;8.428;2023-11-22T14:36:57;7.00;99.90
46037;DHT22;31769;49.304;8.428;2023-11-22T14:39:58;7.00;99.90
46037;DHT22;31769;49.304;8.428;2023-11-22T14:42:59;6.90;99.90
46037;DHT22;31769;49.304;8.428;2023-11-22T14:46:00;6.80;99.90
46037;DHT22;31769;49.304;8.428;2023-11-22T14:49:01;6.70;99.90
46037;DHT22;31769;49.304;8.428;2023-11-22T14:52:03;6.60;99.90
46037;DHT22;31769;49.304;8.428;2023-11-22T14:55:04;6.50;99.90
46037;DHT22;31769;49.304;8.428;2023-11-22T14:58:05;6.40;99.90
46037;DHT22;31769;49.304;8.428;2023-11-22T15:01:06;6.40;99.90
46037;DHT22;31769;49.304;8.428;2023-11-22T15:04:09;6.30;99.90
46037;DHT22;31769;49.304;8.428;2023-11-22T15:07:11;6.20;99.90
46037;DHT22;31769;49.304;8.428;2023-11-22T15:10:12;6.10;99.90
46037;DHT22;31769;49.304;8.428;2023-11-22T15:13:13;6.20;99.90
46037;DHT22;31769;49.304;8.428;2023-11-22T15:16:15;6.50;99.90
46037;DHT22;31769;49.304;8.428;2023-11-22T15:19:17;7.20;99.90
46037;DHT22;31769;49.304;8.428;2023-11-22T15:22:18;7.60;99.90
46037;DHT22;31769;49.304;8.428;2023-11-22T15:25:19;7.90;99.90
46037;DHT22;31769;49.304;8.428;2023-11-22T15:28:20;7.80;99.90
46037;DHT22;31769;49.304;8.428;2023-11-22T15:31:23;7.80;99.90
46037;DHT22;31769;49.304;8.428;2023-11-22T15:34:24;7.50;99.90
46037;DHT22;31769;49.304;8.428;2023-11-22T15:37:24;7.20;99.90
46037;DHT22;31769;49.304;8.428;2023-11-22T15:40:25;6.60;99.90
46037;DHT22;31769;49.304;8.428;2023-11-22T15:43:25;6.10;99.90
46037;DHT22;31769;49.304;8.428;2023-11-22T15:46:28;5.90;99.90
46037;DHT22;31769;49.304;8.428;2023-11-22T15:49:29;5.70;99.90
46037;DHT22;31769;49.304;8.428;2023-11-22T15:52:30;5.50;99.90
46037;DHT22;31769;49.304;8.428;2023-11-22T15:55:31;5.40;99.90
46037;DHT22;31769;49.304;8.428;2023-11-22T15:58:31;5.30;99.90
46037;DHT22;31769;49.304;8.428;2023-11-22T16:01:32;5.20;99.90
46037;DHT22;31769;49.304;8.428;2023-11-22T16:04:33;5.10;99.90
46037;DHT22;31769;49.304;8.428;2023-11-22T16:07:33;5.10;99.90
46037;DHT22;31769;49.304;8.428;2023-11-22T16:10:34;5.10;99.90
46037;DHT22;31769;49.304;8.428;2023-11-22T16:13:35;5.00;99.90
46037;DHT22;31769;49.304;8.428;2023-11-22T16:16:35;5.00;99.90
46037;DHT22;31769;49.304;8.428;2023-11-22T16:19:36;4.90;99.90
46037;DHT22;31769;49.304;8.428;2023-11-22T16:22:38;4.90;99.90
46037;DHT22;31769;49.304;8.428;2023-11-22T16:25:48;4.80;99.90
46037;DHT22;31769;49.304;8.428;2023-11-22T16:28:50;4.80;99.90
46037;DHT22;31769;49.304;8.428;2023-11-22T16:31:50;4.70;99.90
46037;DHT22;31769;49.304;8.428;2023-11-22T16:34:51;4.70;99.90
46037;DHT22;31769;49.304;8.428;2023-11-22T16:37:52;4.70;99.90
46037;DHT22;31769;49.304;8.428;2023-11-22T16:40:52;4.70;99.90
46037;DHT22;31769;49.304;8.428;2023-11-22T16:43:54;4.80;99.90
46037;DHT22;31769;49.304;8.428;2023-11-22T16:46:54;4.80;99.90
46037;DHT22;31769;49.304;8.428;2023-11-22T16:49:55;4.80;99.90
46037;DHT22;31769;49.304;8.428;2023-11-22T16:52:56;4.70;99.90
46037;DHT22;31769;49.304;8.428;2023-11-22T16:55:57;4.70;99.90
46037;DHT22;31769;49.304;8.428;2023-11-22T16:58:57;4.60;99.90
46037;DHT22;31769;49.304;8.428;2023-11-22T17:01:58;4.60;99.90
46037;DHT22;31769;49.304;8.428;2023-11-22T17:05:02;4.60;99.90
46037;DHT22;31769;49.304;8.428;2023-11-22T17:08:03;4.50;99.90
46037;DHT22;31769;49.304;8.428;2023-11-22T17:11:04;4.50;99.90
46037;DHT22;31769;49.304;8.428;2023-11-22T17:14:04;4.40;99.90
46037;DHT22;31769;49.304;8.428;2023-11-22T17:17:05;4.40;99.90
46037;DHT22;31769;49.304;8.428;2023-11-22T17:20:06;4.40;99.90
46037;DHT22;31769;49.304;8.428;2023-11-22T17:23:07;4.40;99.90
46037;DHT22;31769;49.304;8.428;2023-11-22T17:26:08;4.40;99.90
46037;DHT22;31769;49.304;8.428;2023-11-22T17:29:10;4.30;99.90
46037;DHT22;31769;49.304;8.428;2023-11-22T17:32:10;4.20;99.90
46037;DHT22;31769;49.304;8.428;2023-11-22T17:35:12;4.20;99.90
46037;DHT22;31769;49.304;8.428;2023-11-22T17:38:13;4.20;99.90
46037;DHT22;31769;49.304;8.428;2023-11-22T17:41:14;4.10;99.90
46037;DHT22;31769;49.304;8.428;2023-11-22T17:44:14;4.20;99.90
46037;DHT22;31769;49.304;8.428;2023-11-22T17:47:15;4.10;99.90
46037;DHT22;31769;49.304;8.428;2023-11-22T17:50:16;4.10;99.90
46037;DHT22;31769;49.304;8.428;2023-11-22T17:53:17;4.10;99.90
46037;DHT22;31769;49.304;8.428;2023-11-22T17:56:18;4.10;99.90
46037;DHT22;31769;49.304;8.428;2023-11-22T17:59:18;4.10;99.90
46037;DHT22;31769;49.304;8.428;2023-11-22T18:02:20;4.10;99.90
46037;DHT22;31769;49.304;8.428;2023-11-22T18:05:20;4.10;99.90
46037;DHT22;31769;49.304;8.428;2023-11-22T18:08:25;4.10;99.90
46037;DHT22;31769;49.304;8.428;2023-11-22T18:11:26;3.90;99.90
46037;DHT22;31769;49.304;8.428;2023-11-22T18:14:27;3.50;99.90
46037;DHT22;31769;49.304;8.428;2023-11-22T18:17:27;3.40;99.90
46037;DHT22;31769;49.304;8.428;2023-11-22T18:20:28;3.40;99.90
46037;DHT22;31769;49.304;8.428;2023-11-22T18:23:29;3.40;99.90
46037;DHT22;31769;49.304;8.428;2023-11-22T18:26:29;3.50;99.90
46037;DHT22;31769;49.304;8.428;2023-11-22T18:29:30;3.50;99.90
46037;DHT22;31769;49.304;8.428;2023-11-22T18:32:30;3.60;99.90
46037;DHT22;31769;49.304;8.428;2023-11-22T18:35:31;3.60;99.90
46037;DHT22;31769;49.304;8.428;2023-11-22T18:38:32;3.60;99.90
46037;DHT22;31769;49.304;8.428;2023-11-22T18:41:32;3.60;99.90
46037;DHT22;31769;49.304;8.428;2023-11-22T18:44:35;3.70;99.90
46037;DHT22;31769;49.304;8.428;2023-11-22T18:47:38;3.60;99.90
46037;DHT22;31769;49.304;8.428;2023-11-22T18:50:39;3.70;99.90
46037;DHT22;31769;49.304;8.428;2023-11-22T18:53:40;3.60;99.90
46037;DHT22;31769;49.304;8.428;2023-11-22T18:56:40;3.40;99.90
46037;DHT22;31769;49.304;8.428;2023-11-22T18:59:44;3.20;99.90
46037;DHT22;31769;49.304;8.428;2023-11-22T19:02:49;3.20;99.90
46037;DHT22;31769;49.304;8.428;2023-11-22T19:05:49;3.20;99.90
46037;DHT22;31769;49.304;8.428;2023-11-22T19:08:52;3.40;99.90
46037;DHT22;31769;49.304;8.428;2023-11-22T19:11:53;3.40;99.90
46037;DHT22;31769;49.304;8.428;2023-11-22T19:14:53;3.50;99.90
46037;DHT22;31769;49.304;8.428;2023-11-22T19:17:54;3.40;99.90
46037;DHT22;31769;49.304;8.428;2023-11-22T19:20:55;3.40;99.90
46037;DHT22;31769;49.304;8.428;2023-11-22T19:24:02;3.30;99.90